sensor_id;sensor_type;location;lat;lon;timestamp;P1;durP1;ratioP1;P2;durP2;ratioP2
77105;SDS011;66057;54.718;18.426;2023-07-13T00:00:28;11.02;;;4.60;;
77105;SDS011;66057;54.718;18.426;2023-07-13T00:03:15;6.80;;;4.05;;
77105;SDS011;66057;54.718;18.426;2023-07-13T00:05:42;5.38;;;3.85;;
77105;SDS011;66057;54.718;18.426;2023-07-13T00:08:08;8.35;;;3.88;;
77105;SDS011;66057;54.718;18.426;2023-07-13T00:10:34;6.15;;;3.55;;
77105;SDS011;66057;54.718;18.426;2023-07-13T00:13:04;9.23;;;4.30;;
77105;SDS011;66057;54.718;18.426;2023-07-13T00:15:29;12.57;;;4.18;;
77105;SDS011;66057;54.718;18.426;2023-07-13T00:17:57;9.70;;;4.00;;
77105;SDS011;66057;54.718;18.426;2023-07-13T00:20:24;5.70;;;3.55;;
77105;SDS011;66057;54.718;18.426;2023-07-13T00:22:53;7.57;;;3.65;;
77105;SDS011;66057;54.718;18.426;2023-07-13T00:25:19;10.35;;;4.72;;
77105;SDS011;66057;54.718;18.426;2023-07-13T00:27:47;10.38;;;3.85;;
77105;SDS011;66057;54.718;18.426;2023-07-13T00:30:14;9.82;;;3.40;;
77105;SDS011;66057;54.718;18.426;2023-07-13T00:32:40;4.88;;;3.40;;
77105;SDS011;66057;54.718;18.426;2023-07-13T00:35:06;6.82;;;3.97;;
77105;SDS011;66057;54.718;18.426;2023-07-13T00:39:58;5.93;;;3.38;;
77105;SDS011;66057;54.718;18.426;2023-07-13T00:42:24;6.75;;;3.70;;
77105;SDS011;66057;54.718;18.426;2023-07-13T00:47:37;9.32;;;4.13;;
77105;SDS011;66057;54.718;18.426;2023-07-13T00:50:03;7.90;;;4.15;;
77105;SDS011;66057;54.718;18.426;2023-07-13T00:52:33;8.30;;;4.32;;
77105;SDS011;66057;54.718;18.426;2023-07-13T00:55:02;7.97;;;4.47;;
77105;SDS011;66057;54.718;18.426;2023-07-13T00:59:55;8.02;;;4.25;;
77105;SDS011;66057;54.718;18.426;2023-07-13T01:02:24;8.05;;;4.05;;
77105;SDS011;66057;54.718;18.426;2023-07-13T01:04:51;9.27;;;3.83;;
77105;SDS011;66057;54.718;18.426;2023-07-13T01:07:16;10.68;;;4.63;;
77105;SDS011;66057;54.718;18.426;2023-07-13T01:09:44;8.15;;;3.67;;
77105;SDS011;66057;54.718;18.426;2023-07-13T01:12:10;7.28;;;4.03;;
77105;SDS011;66057;54.718;18.426;2023-07-13T01:14:36;9.38;;;4.20;;
77105;SDS011;66057;54.718;18.426;2023-07-13T01:17:02;8.00;;;3.53;;
77105;SDS011;66057;54.718;18.426;2023-07-13T01:19:39;11.05;;;4.68;;
77105;SDS011;66057;54.718;18.426;2023-07-13T01:22:10;13.68;;;4.05;;
77105;SDS011;66057;54.718;18.426;2023-07-13T01:24:42;9.32;;;4.13;;
77105;SDS011;66057;54.718;18.426;2023-07-13T01:27:10;7.60;;;4.07;;
77105;SDS011;66057;54.718;18.426;2023-07-13T01:29:38;6.32;;;3.72;;
77105;SDS011;66057;54.718;18.426;2023-07-13T01:32:11;6.45;;;3.83;;
77105;SDS011;66057;54.718;18.426;2023-07-13T01:34:40;10.98;;;4.32;;
77105;SDS011;66057;54.718;18.426;2023-07-13T01:37:10;13.32;;;4.50;;
77105;SDS011;66057;54.718;18.426;2023-07-13T01:39:36;10.35;;;4.22;;
77105;SDS011;66057;54.718;18.426;2023-07-13T01:42:02;11.27;;;3.88;;
77105;SDS011;66057;54.718;18.426;2023-07-13T01:44:46;13.70;;;4.50;;
77105;SDS011;66057;54.718;18.426;2023-07-13T01:47:12;11.02;;;4.18;;
77105;SDS011;66057;54.718;18.426;2023-07-13T01:49:38;13.07;;;3.95;;
77105;SDS011;66057;54.718;18.426;2023-07-13T01:52:07;8.80;;;4.45;;
77105;SDS011;66057;54.718;18.426;2023-07-13T01:54:32;7.30;;;3.80;;
77105;SDS011;66057;54.718;18.426;2023-07-13T01:59:25;9.77;;;4.35;;
77105;SDS011;66057;54.718;18.426;2023-07-13T02:01:51;9.55;;;4.25;;
77105;SDS011;66057;54.718;18.426;2023-07-13T02:04:16;7.88;;;4.90;;
77105;SDS011;66057;54.718;18.426;2023-07-13T02:06:42;10.15;;;4.25;;
77105;SDS011;66057;54.718;18.426;2023-07-13T02:09:08;7.22;;;3.95;;
77105;SDS011;66057;54.718;18.426;2023-07-13T02:11:34;8.40;;;4.00;;
77105;SDS011;66057;54.718;18.426;2023-07-13T02:14:00;16.08;;;4.78;;
77105;SDS011;66057;54.718;18.426;2023-07-13T02:16:30;8.27;;;3.67;;
77105;SDS011;66057;54.718;18.426;2023-07-13T02:18:56;9.80;;;4.22;;
77105;SDS011;66057;54.718;18.426;2023-07-13T02:23:48;11.75;;;5.15;;
77105;SDS011;66057;54.718;18.426;2023-07-13T02:26:15;7.93;;;4.00;;
77105;SDS011;66057;54.718;18.426;2023-07-13T02:28:41;5.40;;;4.05;;
77105;SDS011;66057;54.718;18.426;2023-07-13T02:31:11;11.18;;;3.92;;
77105;SDS011;66057;54.718;18.426;2023-07-13T02:33:38;7.88;;;3.60;;
77105;SDS011;66057;54.718;18.426;2023-07-13T02:36:04;11.30;;;3.97;;
77105;SDS011;66057;54.718;18.426;2023-07-13T02:38:31;13.63;;;4.35;;
77105;SDS011;66057;54.718;18.426;2023-07-13T02:40:59;4.05;;;2.67;;
77105;SDS011;66057;54.718;18.426;2023-07-13T02:43:25;7.22;;;3.38;;
77105;SDS011;66057;54.718;18.426;2023-07-13T02:45:51;8.00;;;4.05;;
77105;SDS011;66057;54.718;18.426;2023-07-13T02:48:16;7.18;;;2.80;;
77105;SDS011;66057;54.718;18.426;2023-07-13T02:50:43;7.22;;;4.07;;
77105;SDS011;66057;54.718;18.426;2023-07-13T02:53:09;10.02;;;4.40;;
77105;SDS011;66057;54.718;18.426;2023-07-13T02:55:35;7.90;;;3.63;;
77105;SDS011;66057;54.718;18.426;2023-07-13T02:58:01;6.63;;;4.55;;
77105;SDS011;66057;54.718;18.426;2023-07-13T03:00:27;5.47;;;2.65;;
77105;SDS011;66057;54.718;18.426;2023-07-13T03:02:53;10.93;;;4.60;;
77105;SDS011;66057;54.718;18.426;2023-07-13T03:05:22;9.88;;;3.45;;
77105;SDS011;66057;54.718;18.426;2023-07-13T03:07:48;7.28;;;3.72;;
77105;SDS011;66057;54.718;18.426;2023-07-13T03:10:14;11.32;;;4.32;;
77105;SDS011;66057;54.718;18.426;2023-07-13T03:12:39;8.73;;;3.70;;
77105;SDS011;66057;54.718;18.426;2023-07-13T03:15:05;6.15;;;2.97;;
77105;SDS011;66057;54.718;18.426;2023-07-13T03:17:31;9.18;;;3.97;;
77105;SDS011;66057;54.718;18.426;2023-07-13T03:19:56;6.70;;;3.55;;
77105;SDS011;66057;54.718;18.426;2023-07-13T03:22:22;8.52;;;4.43;;
77105;SDS011;66057;54.718;18.426;2023-07-13T03:24:48;11.75;;;3.42;;
77105;SDS011;66057;54.718;18.426;2023-07-13T03:27:14;7.85;;;4.25;;
77105;SDS011;66057;54.718;18.426;2023-07-13T03:29:41;11.10;;;3.50;;
77105;SDS011;66057;54.718;18.426;2023-07-13T03:32:06;5.97;;;3.20;;
77105;SDS011;66057;54.718;18.426;2023-07-13T03:34:33;6.78;;;3.40;;
77105;SDS011;66057;54.718;18.426;2023-07-13T03:36:58;9.52;;;3.90;;
77105;SDS011;66057;54.718;18.426;2023-07-13T03:39:24;6.10;;;3.45;;
77105;SDS011;66057;54.718;18.426;2023-07-13T03:41:50;9.38;;;3.42;;
77105;SDS011;66057;54.718;18.426;2023-07-13T03:44:16;10.27;;;3.60;;
77105;SDS011;66057;54.718;18.426;2023-07-13T03:46:42;8.40;;;3.85;;
77105;SDS011;66057;54.718;18.426;2023-07-13T03:49:09;6.10;;;4.38;;
77105;SDS011;66057;54.718;18.426;2023-07-13T03:51:34;8.05;;;3.15;;
77105;SDS011;66057;54.718;18.426;2023-07-13T03:54:00;8.63;;;4.10;;
77105;SDS011;66057;54.718;18.426;2023-07-13T03:56:27;9.13;;;2.95;;
77105;SDS011;66057;54.718;18.426;2023-07-13T03:58:54;6.28;;;3.20;;
77105;SDS011;66057;54.718;18.426;2023-07-13T04:01:20;8.30;;;3.00;;
77105;SDS011;66057;54.718;18.426;2023-07-13T04:03:47;11.38;;;3.90;;
77105;SDS011;66057;54.718;18.426;2023-07-13T04:06:15;7.53;;;3.35;;
77105;SDS011;66057;54.718;18.426;2023-07-13T04:08:53;6.82;;;3.63;;
77105;SDS011;66057;54.718;18.426;2023-07-13T04:11:21;7.88;;;3.50;;
77105;SDS011;66057;54.718;18.426;2023-07-13T04:13:49;4.97;;;2.70;;
77105;SDS011;66057;54.718;18.426;2023-07-13T04:16:15;10.32;;;3.92;;
77105;SDS011;66057;54.718;18.426;2023-07-13T04:18:43;7.03;;;2.92;;
77105;SDS011;66057;54.718;18.426;2023-07-13T04:21:09;8.27;;;3.40;;
77105;SDS011;66057;54.718;18.426;2023-07-13T04:23:36;5.57;;;3.42;;
77105;SDS011;66057;54.718;18.426;2023-07-13T04:26:02;8.35;;;3.65;;
77105;SDS011;66057;54.718;18.426;2023-07-13T04:28:28;13.40;;;3.67;;
77105;SDS011;66057;54.718;18.426;2023-07-13T04:30:54;7.60;;;4.03;;
77105;SDS011;66057;54.718;18.426;2023-07-13T04:33:20;12.13;;;4.13;;
77105;SDS011;66057;54.718;18.426;2023-07-13T04:35:51;10.18;;;4.40;;
77105;SDS011;66057;54.718;18.426;2023-07-13T04:38:20;8.68;;;3.42;;
77105;SDS011;66057;54.718;18.426;2023-07-13T04:40:46;6.15;;;3.22;;
77105;SDS011;66057;54.718;18.426;2023-07-13T04:43:11;6.47;;;2.63;;
77105;SDS011;66057;54.718;18.426;2023-07-13T04:45:37;6.45;;;3.17;;
77105;SDS011;66057;54.718;18.426;2023-07-13T04:48:03;7.82;;;2.97;;
77105;SDS011;66057;54.718;18.426;2023-07-13T04:50:29;8.57;;;4.43;;
77105;SDS011;66057;54.718;18.426;2023-07-13T04:52:54;5.85;;;2.88;;
77105;SDS011;66057;54.718;18.426;2023-07-13T04:55:20;7.18;;;3.45;;
77105;SDS011;66057;54.718;18.426;2023-07-13T04:57:46;8.80;;;3.53;;
77105;SDS011;66057;54.718;18.426;2023-07-13T05:00:13;7.00;;;3.28;;
77105;SDS011;66057;54.718;18.426;2023-07-13T05:02:42;7.45;;;3.28;;
77105;SDS011;66057;54.718;18.426;2023-07-13T05:05:09;9.00;;;3.53;;
77105;SDS011;66057;54.718;18.426;2023-07-13T05:07:35;7.43;;;2.97;;
77105;SDS011;66057;54.718;18.426;2023-07-13T05:10:01;8.88;;;3.42;;
77105;SDS011;66057;54.718;18.426;2023-07-13T05:12:28;7.25;;;3.05;;
77105;SDS011;66057;54.718;18.426;2023-07-13T05:14:54;8.90;;;3.03;;
77105;SDS011;66057;54.718;18.426;2023-07-13T05:17:20;10.63;;;3.22;;
77105;SDS011;66057;54.718;18.426;2023-07-13T05:19:45;8.05;;;3.30;;
77105;SDS011;66057;54.718;18.426;2023-07-13T05:22:11;7.43;;;3.10;;
77105;SDS011;66057;54.718;18.426;2023-07-13T05:24:37;8.80;;;3.53;;
77105;SDS011;66057;54.718;18.426;2023-07-13T05:27:03;7.63;;;3.60;;
77105;SDS011;66057;54.718;18.426;2023-07-13T05:29:29;4.45;;;3.13;;
77105;SDS011;66057;54.718;18.426;2023-07-13T05:31:54;8.35;;;3.00;;
77105;SDS011;66057;54.718;18.426;2023-07-13T05:34:20;7.07;;;4.38;;
77105;SDS011;66057;54.718;18.426;2023-07-13T05:36:46;10.60;;;3.10;;
77105;SDS011;66057;54.718;18.426;2023-07-13T05:39:12;8.73;;;3.22;;
77105;SDS011;66057;54.718;18.426;2023-07-13T05:41:37;4.90;;;2.88;;
77105;SDS011;66057;54.718;18.426;2023-07-13T05:44:03;5.95;;;2.78;;
77105;SDS011;66057;54.718;18.426;2023-07-13T05:46:29;8.15;;;3.63;;
77105;SDS011;66057;54.718;18.426;2023-07-13T05:48:55;5.50;;;2.67;;
77105;SDS011;66057;54.718;18.426;2023-07-13T05:51:21;4.47;;;2.05;;
77105;SDS011;66057;54.718;18.426;2023-07-13T05:53:46;8.93;;;3.45;;
77105;SDS011;66057;54.718;18.426;2023-07-13T05:56:12;8.82;;;2.83;;
77105;SDS011;66057;54.718;18.426;2023-07-13T05:58:38;9.88;;;3.42;;
77105;SDS011;66057;54.718;18.426;2023-07-13T06:01:05;6.68;;;2.45;;
77105;SDS011;66057;54.718;18.426;2023-07-13T06:03:33;5.13;;;2.10;;
77105;SDS011;66057;54.718;18.426;2023-07-13T06:05:59;5.43;;;2.13;;
77105;SDS011;66057;54.718;18.426;2023-07-13T06:08:25;7.72;;;2.40;;
77105;SDS011;66057;54.718;18.426;2023-07-13T06:10:52;3.10;;;1.70;;
77105;SDS011;66057;54.718;18.426;2023-07-13T06:13:21;3.83;;;1.70;;
77105;SDS011;66057;54.718;18.426;2023-07-13T06:15:51;6.68;;;2.20;;
77105;SDS011;66057;54.718;18.426;2023-07-13T06:18:16;7.30;;;1.92;;
77105;SDS011;66057;54.718;18.426;2023-07-13T06:20:42;5.05;;;1.85;;
77105;SDS011;66057;54.718;18.426;2023-07-13T06:23:08;4.88;;;1.65;;
77105;SDS011;66057;54.718;18.426;2023-07-13T06:25:33;3.10;;;1.40;;
77105;SDS011;66057;54.718;18.426;2023-07-13T06:27:59;4.72;;;2.10;;
77105;SDS011;66057;54.718;18.426;2023-07-13T06:30:26;3.05;;;1.40;;
77105;SDS011;66057;54.718;18.426;2023-07-13T06:32:52;4.43;;;1.40;;
77105;SDS011;66057;54.718;18.426;2023-07-13T06:35:18;4.90;;;1.42;;
77105;SDS011;66057;54.718;18.426;2023-07-13T06:37:44;4.63;;;1.45;;
77105;SDS011;66057;54.718;18.426;2023-07-13T06:40:10;3.90;;;1.40;;
77105;SDS011;66057;54.718;18.426;2023-07-13T06:42:36;5.85;;;2.08;;
77105;SDS011;66057;54.718;18.426;2023-07-13T06:45:03;7.32;;;1.80;;
77105;SDS011;66057;54.718;18.426;2023-07-13T06:47:29;2.20;;;1.17;;
77105;SDS011;66057;54.718;18.426;2023-07-13T06:49:55;2.08;;;1.27;;
77105;SDS011;66057;54.718;18.426;2023-07-13T06:52:21;2.88;;;1.40;;
77105;SDS011;66057;54.718;18.426;2023-07-13T06:54:47;3.33;;;1.30;;
77105;SDS011;66057;54.718;18.426;2023-07-13T06:57:12;5.50;;;1.52;;
77105;SDS011;66057;54.718;18.426;2023-07-13T06:59:38;3.38;;;1.20;;
77105;SDS011;66057;54.718;18.426;2023-07-13T07:02:04;5.38;;;1.23;;
77105;SDS011;66057;54.718;18.426;2023-07-13T07:06:55;4.60;;;1.00;;
77105;SDS011;66057;54.718;18.426;2023-07-13T07:09:24;3.60;;;1.23;;
77105;SDS011;66057;54.718;18.426;2023-07-13T07:11:50;4.45;;;1.55;;
77105;SDS011;66057;54.718;18.426;2023-07-13T07:14:16;2.97;;;0.73;;
77105;SDS011;66057;54.718;18.426;2023-07-13T07:16:42;3.28;;;1.05;;
77105;SDS011;66057;54.718;18.426;2023-07-13T07:19:08;2.40;;;1.00;;
77105;SDS011;66057;54.718;18.426;2023-07-13T07:21:34;3.20;;;0.88;;
77105;SDS011;66057;54.718;18.426;2023-07-13T07:24:00;3.78;;;0.98;;
77105;SDS011;66057;54.718;18.426;2023-07-13T07:26:25;3.42;;;1.00;;
77105;SDS011;66057;54.718;18.426;2023-07-13T07:31:17;0.98;;;0.40;;
77105;SDS011;66057;54.718;18.426;2023-07-13T07:33:43;3.08;;;0.60;;
77105;SDS011;66057;54.718;18.426;2023-07-13T07:36:08;1.98;;;0.85;;
77105;SDS011;66057;54.718;18.426;2023-07-13T07:38:34;2.53;;;0.75;;
77105;SDS011;66057;54.718;18.426;2023-07-13T07:41:02;2.25;;;1.67;;
77105;SDS011;66057;54.718;18.426;2023-07-13T07:43:29;2.53;;;0.65;;
77105;SDS011;66057;54.718;18.426;2023-07-13T07:45:54;4.20;;;0.80;;
77105;SDS011;66057;54.718;18.426;2023-07-13T07:48:20;3.92;;;0.70;;
77105;SDS011;66057;54.718;18.426;2023-07-13T07:50:46;2.03;;;0.75;;
77105;SDS011;66057;54.718;18.426;2023-07-13T07:53:11;1.70;;;0.75;;
77105;SDS011;66057;54.718;18.426;2023-07-13T07:55:38;4.38;;;1.00;;
77105;SDS011;66057;54.718;18.426;2023-07-13T08:00:30;3.40;;;1.02;;
77105;SDS011;66057;54.718;18.426;2023-07-13T08:02:57;1.75;;;0.85;;
77105;SDS011;66057;54.718;18.426;2023-07-13T08:05:23;1.75;;;0.68;;
77105;SDS011;66057;54.718;18.426;2023-07-13T08:07:49;3.00;;;0.70;;
77105;SDS011;66057;54.718;18.426;2023-07-13T08:10:15;2.60;;;0.73;;
77105;SDS011;66057;54.718;18.426;2023-07-13T08:12:41;1.55;;;0.60;;
77105;SDS011;66057;54.718;18.426;2023-07-13T08:15:09;1.95;;;0.30;;
77105;SDS011;66057;54.718;18.426;2023-07-13T08:17:37;2.20;;;0.60;;
77105;SDS011;66057;54.718;18.426;2023-07-13T08:20:03;2.90;;;0.55;;
77105;SDS011;66057;54.718;18.426;2023-07-13T08:22:29;4.72;;;1.00;;
77105;SDS011;66057;54.718;18.426;2023-07-13T08:24:55;3.17;;;0.70;;
77105;SDS011;66057;54.718;18.426;2023-07-13T08:27:21;3.38;;;0.70;;
77105;SDS011;66057;54.718;18.426;2023-07-13T08:29:51;2.17;;;0.55;;
77105;SDS011;66057;54.718;18.426;2023-07-13T08:32:18;2.10;;;0.57;;
77105;SDS011;66057;54.718;18.426;2023-07-13T08:34:44;0.98;;;0.63;;
77105;SDS011;66057;54.718;18.426;2023-07-13T08:39:36;3.33;;;0.43;;
77105;SDS011;66057;54.718;18.426;2023-07-13T08:42:11;3.42;;;0.60;;
77105;SDS011;66057;54.718;18.426;2023-07-13T08:44:47;2.15;;;0.52;;
77105;SDS011;66057;54.718;18.426;2023-07-13T08:47:15;1.30;;;0.50;;
77105;SDS011;66057;54.718;18.426;2023-07-13T08:49:42;1.92;;;0.65;;
77105;SDS011;66057;54.718;18.426;2023-07-13T08:52:16;2.90;;;0.80;;
77105;SDS011;66057;54.718;18.426;2023-07-13T08:54:54;2.90;;;0.65;;
77105;SDS011;66057;54.718;18.426;2023-07-13T08:57:28;2.83;;;1.33;;
77105;SDS011;66057;54.718;18.426;2023-07-13T08:59:58;1.77;;;0.50;;
77105;SDS011;66057;54.718;18.426;2023-07-13T09:05:18;2.72;;;0.40;;
77105;SDS011;66057;54.718;18.426;2023-07-13T09:10:32;2.15;;;0.38;;
77105;SDS011;66057;54.718;18.426;2023-07-13T09:15:43;0.80;;;0.28;;
77105;SDS011;66057;54.718;18.426;2023-07-13T09:20:44;1.80;;;0.40;;
77105;SDS011;66057;54.718;18.426;2023-07-13T09:23:15;2.22;;;0.35;;
77105;SDS011;66057;54.718;18.426;2023-07-13T09:25:43;0.63;;;0.30;;
77105;SDS011;66057;54.718;18.426;2023-07-13T09:28:15;2.88;;;0.40;;
77105;SDS011;66057;54.718;18.426;2023-07-13T09:33:29;1.55;;;0.30;;
77105;SDS011;66057;54.718;18.426;2023-07-13T09:35:56;2.17;;;0.47;;
77105;SDS011;66057;54.718;18.426;2023-07-13T09:38:24;0.77;;;0.30;;
77105;SDS011;66057;54.718;18.426;2023-07-13T09:40:59;1.05;;;0.32;;
77105;SDS011;66057;54.718;18.426;2023-07-13T09:43:26;2.45;;;0.40;;
77105;SDS011;66057;54.718;18.426;2023-07-13T09:45:54;2.70;;;0.63;;
77105;SDS011;66057;54.718;18.426;2023-07-13T09:48:21;0.93;;;0.40;;
77105;SDS011;66057;54.718;18.426;2023-07-13T09:50:46;1.42;;;0.20;;
77105;SDS011;66057;54.718;18.426;2023-07-13T09:53:17;0.75;;;0.22;;
77105;SDS011;66057;54.718;18.426;2023-07-13T09:55:47;3.83;;;0.73;;
77105;SDS011;66057;54.718;18.426;2023-07-13T09:58:18;2.83;;;0.30;;
77105;SDS011;66057;54.718;18.426;2023-07-13T10:00:55;1.48;;;0.40;;
77105;SDS011;66057;54.718;18.426;2023-07-13T10:03:26;3.03;;;0.60;;
77105;SDS011;66057;54.718;18.426;2023-07-13T10:05:53;1.50;;;0.30;;
77105;SDS011;66057;54.718;18.426;2023-07-13T10:08:26;0.75;;;0.30;;
77105;SDS011;66057;54.718;18.426;2023-07-13T10:11:08;2.55;;;0.47;;
77105;SDS011;66057;54.718;18.426;2023-07-13T10:13:36;2.40;;;0.82;;
77105;SDS011;66057;54.718;18.426;2023-07-13T10:16:07;1.15;;;0.30;;
77105;SDS011;66057;54.718;18.426;2023-07-13T10:18:37;1.13;;;0.40;;
77105;SDS011;66057;54.718;18.426;2023-07-13T10:21:14;1.25;;;0.30;;
77105;SDS011;66057;54.718;18.426;2023-07-13T10:23:47;1.65;;;0.40;;
77105;SDS011;66057;54.718;18.426;2023-07-13T10:26:19;2.65;;;0.35;;
77105;SDS011;66057;54.718;18.426;2023-07-13T10:28:51;2.20;;;0.50;;
77105;SDS011;66057;54.718;18.426;2023-07-13T10:31:21;1.23;;;0.35;;
77105;SDS011;66057;54.718;18.426;2023-07-13T10:33:47;5.35;;;0.50;;
77105;SDS011;66057;54.718;18.426;2023-07-13T10:36:39;1.20;;;0.43;;
77105;SDS011;66057;54.718;18.426;2023-07-13T10:39:16;3.10;;;0.40;;
77105;SDS011;66057;54.718;18.426;2023-07-13T10:41:44;1.38;;;0.63;;
77105;SDS011;66057;54.718;18.426;2023-07-13T10:44:33;1.75;;;0.63;;
77105;SDS011;66057;54.718;18.426;2023-07-13T10:47:00;2.17;;;0.55;;
77105;SDS011;66057;54.718;18.426;2023-07-13T10:49:31;3.45;;;0.85;;
77105;SDS011;66057;54.718;18.426;2023-07-13T10:52:01;1.90;;;0.45;;
77105;SDS011;66057;54.718;18.426;2023-07-13T10:59:43;1.63;;;0.30;;
77105;SDS011;66057;54.718;18.426;2023-07-13T11:02:25;2.03;;;0.20;;
77105;SDS011;66057;54.718;18.426;2023-07-13T11:04:53;1.55;;;0.40;;
77105;SDS011;66057;54.718;18.426;2023-07-13T11:07:23;2.80;;;0.50;;
77105;SDS011;66057;54.718;18.426;2023-07-13T11:10:09;0.88;;;0.55;;
77105;SDS011;66057;54.718;18.426;2023-07-13T11:12:58;2.70;;;0.40;;
77105;SDS011;66057;54.718;18.426;2023-07-13T11:15:32;1.70;;;0.28;;
77105;SDS011;66057;54.718;18.426;2023-07-13T11:18:19;0.93;;;0.35;;
77105;SDS011;66057;54.718;18.426;2023-07-13T11:20:51;1.13;;;0.50;;
77105;SDS011;66057;54.718;18.426;2023-07-13T11:23:38;0.93;;;0.25;;
77105;SDS011;66057;54.718;18.426;2023-07-13T11:31:52;0.82;;;0.20;;
77105;SDS011;66057;54.718;18.426;2023-07-13T11:34:29;0.80;;;0.28;;
77105;SDS011;66057;54.718;18.426;2023-07-13T11:37:00;2.47;;;0.70;;
77105;SDS011;66057;54.718;18.426;2023-07-13T11:39:36;0.82;;;0.13;;
77105;SDS011;66057;54.718;18.426;2023-07-13T11:42:09;0.68;;;0.20;;
77105;SDS011;66057;54.718;18.426;2023-07-13T11:44:43;3.75;;;0.50;;
77105;SDS011;66057;54.718;18.426;2023-07-13T11:47:21;3.67;;;0.40;;
77105;SDS011;66057;54.718;18.426;2023-07-13T11:49:49;1.45;;;0.30;;
77105;SDS011;66057;54.718;18.426;2023-07-13T11:52:19;2.10;;;0.80;;
77105;SDS011;66057;54.718;18.426;2023-07-13T11:57:36;3.15;;;0.40;;
77105;SDS011;66057;54.718;18.426;2023-07-13T12:00:14;2.30;;;0.43;;
77105;SDS011;66057;54.718;18.426;2023-07-13T12:02:47;3.53;;;0.30;;
77105;SDS011;66057;54.718;18.426;2023-07-13T12:05:16;2.38;;;0.43;;
77105;SDS011;66057;54.718;18.426;2023-07-13T12:07:43;1.13;;;0.20;;
77105;SDS011;66057;54.718;18.426;2023-07-13T12:10:29;1.90;;;0.30;;
77105;SDS011;66057;54.718;18.426;2023-07-13T12:13:00;1.90;;;0.30;;
77105;SDS011;66057;54.718;18.426;2023-07-13T12:15:45;0.90;;;0.52;;
77105;SDS011;66057;54.718;18.426;2023-07-13T12:18:15;1.95;;;0.20;;
77105;SDS011;66057;54.718;18.426;2023-07-13T12:20:45;1.33;;;0.30;;
77105;SDS011;66057;54.718;18.426;2023-07-13T12:23:23;3.72;;;0.30;;
77105;SDS011;66057;54.718;18.426;2023-07-13T12:25:51;0.90;;;0.20;;
77105;SDS011;66057;54.718;18.426;2023-07-13T12:28:21;1.30;;;0.35;;
77105;SDS011;66057;54.718;18.426;2023-07-13T12:30:49;2.47;;;0.35;;
77105;SDS011;66057;54.718;18.426;2023-07-13T12:33:15;2.92;;;0.40;;
77105;SDS011;66057;54.718;18.426;2023-07-13T12:35:46;3.45;;;0.32;;
77105;SDS011;66057;54.718;18.426;2023-07-13T12:38:15;2.55;;;0.30;;
77105;SDS011;66057;54.718;18.426;2023-07-13T12:40:42;2.47;;;0.40;;
77105;SDS011;66057;54.718;18.426;2023-07-13T12:45:38;2.72;;;0.50;;
77105;SDS011;66057;54.718;18.426;2023-07-13T12:48:14;1.08;;;0.20;;
77105;SDS011;66057;54.718;18.426;2023-07-13T12:50:43;1.77;;;0.82;;
77105;SDS011;66057;54.718;18.426;2023-07-13T12:53:14;1.00;;;0.20;;
77105;SDS011;66057;54.718;18.426;2023-07-13T12:55:49;3.83;;;0.73;;
77105;SDS011;66057;54.718;18.426;2023-07-13T12:58:20;4.22;;;0.40;;
77105;SDS011;66057;54.718;18.426;2023-07-13T13:01:07;4.20;;;0.63;;
77105;SDS011;66057;54.718;18.426;2023-07-13T13:06:05;2.15;;;0.43;;
77105;SDS011;66057;54.718;18.426;2023-07-13T13:08:46;1.58;;;0.30;;
77105;SDS011;66057;54.718;18.426;2023-07-13T13:11:14;2.45;;;0.30;;
77105;SDS011;66057;54.718;18.426;2023-07-13T13:13:41;1.27;;;0.40;;
77105;SDS011;66057;54.718;18.426;2023-07-13T13:16:19;1.33;;;0.30;;
77105;SDS011;66057;54.718;18.426;2023-07-13T13:18:47;1.58;;;0.65;;
77105;SDS011;66057;54.718;18.426;2023-07-13T13:21:17;1.67;;;0.55;;
77105;SDS011;66057;54.718;18.426;2023-07-13T13:23:44;1.23;;;0.32;;
77105;SDS011;66057;54.718;18.426;2023-07-13T13:26:12;4.18;;;0.60;;
77105;SDS011;66057;54.718;18.426;2023-07-13T13:28:41;0.70;;;0.40;;
77105;SDS011;66057;54.718;18.426;2023-07-13T13:31:10;2.15;;;0.50;;
77105;SDS011;66057;54.718;18.426;2023-07-13T13:33:39;1.50;;;0.20;;
77105;SDS011;66057;54.718;18.426;2023-07-13T13:36:15;2.45;;;0.38;;
77105;SDS011;66057;54.718;18.426;2023-07-13T13:38:47;0.85;;;0.35;;
77105;SDS011;66057;54.718;18.426;2023-07-13T13:41:14;3.00;;;0.50;;
77105;SDS011;66057;54.718;18.426;2023-07-13T13:43:40;0.82;;;0.20;;
77105;SDS011;66057;54.718;18.426;2023-07-13T13:46:18;2.15;;;0.30;;
77105;SDS011;66057;54.718;18.426;2023-07-13T13:48:47;1.45;;;0.20;;
77105;SDS011;66057;54.718;18.426;2023-07-13T13:51:15;1.40;;;0.20;;
77105;SDS011;66057;54.718;18.426;2023-07-13T13:53:44;1.35;;;0.20;;
77105;SDS011;66057;54.718;18.426;2023-07-13T13:56:11;1.05;;;0.25;;
77105;SDS011;66057;54.718;18.426;2023-07-13T13:58:40;1.60;;;0.30;;
77105;SDS011;66057;54.718;18.426;2023-07-13T14:01:11;1.88;;;0.20;;
77105;SDS011;66057;54.718;18.426;2023-07-13T14:03:39;0.75;;;0.10;;
77105;SDS011;66057;54.718;18.426;2023-07-13T14:06:07;1.90;;;0.30;;
77105;SDS011;66057;54.718;18.426;2023-07-13T14:08:34;1.17;;;0.10;;
77105;SDS011;66057;54.718;18.426;2023-07-13T14:13:27;1.65;;;0.20;;
77105;SDS011;66057;54.718;18.426;2023-07-13T14:16:13;0.52;;;0.17;;
77105;SDS011;66057;54.718;18.426;2023-07-13T14:18:43;1.67;;;0.25;;
77105;SDS011;66057;54.718;18.426;2023-07-13T14:21:20;2.75;;;0.30;;
77105;SDS011;66057;54.718;18.426;2023-07-13T14:23:47;1.00;;;0.10;;
77105;SDS011;66057;54.718;18.426;2023-07-13T14:26:15;1.48;;;0.30;;
77105;SDS011;66057;54.718;18.426;2023-07-13T14:28:51;1.20;;;0.13;;
77105;SDS011;66057;54.718;18.426;2023-07-13T14:31:18;0.60;;;0.30;;
77105;SDS011;66057;54.718;18.426;2023-07-13T14:33:45;1.50;;;0.30;;
77105;SDS011;66057;54.718;18.426;2023-07-13T14:38:49;1.20;;;0.10;;
77105;SDS011;66057;54.718;18.426;2023-07-13T14:41:16;4.88;;;0.40;;
77105;SDS011;66057;54.718;18.426;2023-07-13T14:46:43;0.60;;;0.13;;
77105;SDS011;66057;54.718;18.426;2023-07-13T14:49:02;1.10;;;0.20;;
77105;SDS011;66057;54.718;18.426;2023-07-13T14:51:31;0.82;;;0.20;;
77105;SDS011;66057;54.718;18.426;2023-07-13T14:54:02;1.33;;;0.20;;
77105;SDS011;66057;54.718;18.426;2023-07-13T14:56:30;0.60;;;0.20;;
77105;SDS011;66057;54.718;18.426;2023-07-13T15:01:21;0.82;;;0.20;;
77105;SDS011;66057;54.718;18.426;2023-07-13T15:03:48;1.35;;;0.30;;
77105;SDS011;66057;54.718;18.426;2023-07-13T15:06:18;1.42;;;0.20;;
77105;SDS011;66057;54.718;18.426;2023-07-13T15:08:45;4.10;;;0.70;;
77105;SDS011;66057;54.718;18.426;2023-07-13T15:11:12;2.95;;;0.17;;
77105;SDS011;66057;54.718;18.426;2023-07-13T15:13:38;2.75;;;0.47;;
77105;SDS011;66057;54.718;18.426;2023-07-13T15:16:11;0.30;;;0.10;;
77105;SDS011;66057;54.718;18.426;2023-07-13T15:18:43;0.70;;;0.28;;
77105;SDS011;66057;54.718;18.426;2023-07-13T15:21:10;0.55;;;0.20;;
77105;SDS011;66057;54.718;18.426;2023-07-13T15:23:41;1.50;;;0.30;;
77105;SDS011;66057;54.718;18.426;2023-07-13T15:26:15;0.55;;;0.20;;
77105;SDS011;66057;54.718;18.426;2023-07-13T15:28:42;3.95;;;0.65;;
77105;SDS011;66057;54.718;18.426;2023-07-13T15:31:16;2.05;;;0.30;;
77105;SDS011;66057;54.718;18.426;2023-07-13T15:33:45;3.25;;;0.38;;
77105;SDS011;66057;54.718;18.426;2023-07-13T15:36:23;0.28;;;0.10;;
77105;SDS011;66057;54.718;18.426;2023-07-13T15:38:51;1.67;;;0.30;;
77105;SDS011;66057;54.718;18.426;2023-07-13T15:41:19;1.73;;;0.30;;
77105;SDS011;66057;54.718;18.426;2023-07-13T15:43:51;1.35;;;0.30;;
77105;SDS011;66057;54.718;18.426;2023-07-13T15:46:19;0.68;;;0.25;;